Time;durP1;ratioP1;P1;durP2;ratioP2;P2;SDS_P1;SDS_P2;PMS_P1;PMS_P2;Temp;Humidity;BMP_temperature;BMP_pressure;BME280_temperature;BME280_humidity;BME280_pressure;Samples;Min_cycle;Max_cycle;Signal;HPM_P1;HPM_P2
2022/04/05 00:02:10;;;;;;;8.20;7.40;;;;;;;9.39;60.02;101056.25;4968305;28;20063;-86
2022/04/05 00:04:37;;;;;;;8.20;7.50;;;;;;;9.68;59.96;101099.06;4972062;28;20047;-85
2022/04/05 00:07:04;;;;;;;7.68;6.95;;;;;;;9.96;60.15;101160.59;4967293;28;20497;-85
2022/04/05 00:09:31;;;;;;;7.45;6.75;;;;;;;8.79;60.53;100957.53;4967337;28;20055;-84
2022/04/05 00:11:58;;;;;;;9.45;7.10;;;;;;;8.59;59.90;100929.91;4970810;28;20065;-84
2022/04/05 00:14:25;;;;;;;8.00;7.30;;;;;;;9.93;60.55;101140.47;4971805;28;20062;-85
2022/04/05 00:16:52;;;;;;;7.25;6.47;;;;;;;8.76;60.59;100940.09;4986584;28;20059;-85
2022/04/05 00:19:19;;;;;;;8.48;7.68;;;;;;;9.94;61.38;101138.66;4986824;28;20152;-84
2022/04/05 00:21:46;;;;;;;7.65;6.75;;;;;;;9.27;61.13;101026.28;4986072;28;20065;-85
2022/04/05 00:24:12;;;;;;;9.18;7.80;;;;;;;9.95;61.31;101135.88;4986931;28;20054;-85
2022/04/05 00:26:39;;;;;;;7.90;7.20;;;;;;;9.94;61.42;101142.16;4986024;28;20130;-84
2022/04/05 00:29:07;;;;;;;8.82;8.00;;;;;;;9.74;61.26;101101.25;4986450;28;20092;-85
2022/04/05 00:31:34;;;;;;;9.45;7.72;;;;;;;8.94;61.27;100966.97;4991579;28;20065;-85
2022/04/05 00:34:01;;;;;;;9.98;7.70;;;;;;;9.83;60.88;101102.38;4995150;28;20522;-84
2022/04/05 00:36:27;;;;;;;9.43;8.52;;;;;;;9.96;61.31;101119.00;4993090;28;20058;-85
2022/04/05 00:38:54;;;;;;;9.27;7.32;;;;;;;9.67;61.25;101080.66;4990754;28;20050;-84
2022/04/05 00:41:21;;;;;;;10.88;7.65;;;;;;;10.00;61.62;101123.13;4988977;28;20543;-83
2022/04/05 00:43:48;;;;;;;8.85;7.50;;;;;;;9.79;62.00;101101.75;4988717;28;20129;-85
2022/04/05 00:46:14;;;;;;;9.18;7.72;;;;;;;9.73;62.08;101101.38;4988953;28;20133;-86
2022/04/05 00:48:50;;;;;;;8.45;7.68;;;;;;;9.62;61.88;101097.75;4990360;28;20138;-85
2022/04/05 00:51:18;;;;;;;8.65;7.82;;;;;;;9.79;62.24;101122.97;4989294;28;20081;-85
2022/04/05 00:53:48;;;;;;;9.15;8.23;;;;;;;8.59;62.17;100932.56;4988910;28;20057;-85
2022/04/05 00:56:18;;;;;;;10.57;8.43;;;;;;;9.41;62.70;101070.25;4988875;28;20086;-85
2022/04/05 00:58:52;;;;;;;8.63;7.82;;;;;;;8.61;62.92;100954.47;4989692;28;20058;-84
2022/04/05 01:01:24;;;;;;;9.00;7.47;;;;;;;8.62;61.78;100948.22;4989133;28;20455;-85
2022/04/05 01:03:53;;;;;;;8.13;7.43;;;;;;;8.34;61.71;100905.25;4988428;28;20455;-84
2022/04/05 01:06:26;;;;;;;7.60;6.97;;;;;;;8.89;62.35;101000.06;4989405;28;20112;-85
2022/04/05 01:08:53;;;;;;;8.20;7.28;;;;;;;9.33;62.09;101065.53;4989077;28;20440;-85
2022/04/05 01:11:20;;;;;;;9.07;8.18;;;;;;;7.99;61.32;100831.22;4990613;28;20164;-84
2022/04/05 01:13:49;;;;;;;8.13;7.35;;;;;;;9.14;60.54;101009.63;4988982;28;20202;-84
2022/04/05 01:16:19;;;;;;;8.68;7.82;;;;;;;8.83;60.19;100952.84;4989310;28;20487;-85
2022/04/05 01:18:46;;;;;;;7.82;7.10;;;;;;;8.93;60.46;100959.13;4989927;28;20417;-85
2022/04/05 01:21:14;;;;;;;7.68;6.95;;;;;;;9.57;60.20;101070.75;4988806;28;20054;-85
2022/04/05 01:24:10;;;;;;;10.63;7.50;;;;;;;9.78;60.36;101088.59;4988271;28;20050;-85
2022/04/05 01:26:46;;;;;;;8.15;7.40;;;;;;;8.58;59.64;100887.69;4988885;28;20043;-85
2022/04/05 01:29:14;;;;;;;7.68;7.07;;;;;;;9.76;60.11;101085.25;4989331;28;20058;-84
2022/04/05 01:31:55;;;;;;;8.73;7.85;;;;;;;9.59;59.75;101063.53;4989040;28;20042;-85
2022/04/05 01:34:24;;;;;;;10.43;7.57;;;;;;;9.76;60.08;101079.94;4988255;28;20471;-85
2022/04/05 01:36:53;;;;;;;9.57;8.10;;;;;;;9.72;60.41;101078.50;4988343;28;20053;-85
2022/04/05 01:39:23;;;;;;;7.80;7.07;;;;;;;9.65;60.44;101072.81;4989589;28;20133;-85
2022/04/05 01:41:54;;;;;;;7.85;7.05;;;;;;;9.55;60.35;101056.78;4988849;28;20046;-84
2022/04/05 01:44:21;;;;;;;7.78;7.13;;;;;;;9.19;60.75;101003.00;4988562;28;20054;-83
2022/04/05 01:46:48;;;;;;;8.50;7.75;;;;;;;9.46;60.61;101036.28;4987981;28;20140;-85
2022/04/05 01:49:16;;;;;;;8.55;7.75;;;;;;;9.59;60.43;101058.22;4988299;28;20077;-84
2022/04/05 01:51:44;;;;;;;8.70;7.82;;;;;;;9.68;60.59;101077.03;4987897;28;20145;-84
2022/04/05 01:54:13;;;;;;;8.00;7.20;;;;;;;9.49;60.62;101046.66;4988192;28;20050;-84
2022/04/05 01:56:51;;;;;;;8.65;7.85;;;;;;;9.60;59.94;101043.16;4987714;28;20078;-84
2022/04/05 01:59:20;;;;;;;10.05;7.43;;;;;;;9.50;60.42;101037.75;4988415;28;20178;-85
2022/04/05 02:01:48;;;;;;;8.80;7.72;;;;;;;9.61;59.97;101066.91;4988128;28;20141;-85
2022/04/05 02:04:15;;;;;;;8.70;7.82;;;;;;;9.57;60.34;101065.47;4988295;28;20105;-86
2022/04/05 02:06:43;;;;;;;8.63;7.72;;;;;;;9.52;61.04;101062.31;4988192;28;20145;-85
2022/04/05 02:09:13;;;;;;;8.23;7.53;;;;;;;9.35;61.52;101044.22;4988185;28;20077;-85
2022/04/05 02:11:47;;;;;;;8.95;8.15;;;;;;;8.92;61.74;100989.22;4989935;28;20062;-85
2022/04/05 02:14:16;;;;;;;8.65;7.85;;;;;;;9.22;62.01;101052.25;4988946;28;20133;-85
2022/04/05 02:16:43;;;;;;;8.88;8.07;;;;;;;8.10;61.56;100875.34;4978421;28;20053;-85
2022/04/05 02:19:12;;;;;;;8.07;7.38;;;;;;;8.15;62.22;100899.66;4968552;28;20225;-84
2022/04/05 02:21:42;;;;;;;9.35;8.55;;;;;;;7.71;61.87;100837.69;4968185;28;20444;-85
2022/04/05 02:24:10;;;;;;;9.80;8.88;;;;;;;8.53;62.32;100967.44;4969679;28;20093;-84
2022/04/05 02:26:37;;;;;;;9.32;8.43;;;;;;;7.28;62.18;100767.69;4968039;28;20101;-84
2022/04/05 02:29:06;;;;;;;9.13;8.15;;;;;;;7.95;62.37;100868.56;4968724;28;20057;-84
2022/04/05 02:31:32;;;;;;;9.18;8.25;;;;;;;7.90;62.52;100875.03;4968339;28;20066;-85
2022/04/05 02:34:00;;;;;;;11.20;8.15;;;;;;;8.04;62.82;100905.75;4968710;28;20453;-84
2022/04/05 02:36:27;;;;;;;10.80;8.50;;;;;;;8.81;63.03;101023.59;4969552;28;20148;-84
2022/04/05 02:38:54;;;;;;;9.82;8.88;;;;;;;7.85;62.88;100869.22;4970077;28;20053;-85
2022/04/05 02:41:20;;;;;;;8.82;8.13;;;;;;;8.36;62.85;100958.06;4971088;28;20057;-85
2022/04/05 02:43:47;;;;;;;9.38;8.45;;;;;;;7.44;62.93;100804.38;4974140;28;20641;-84
2022/04/05 02:46:18;;;;;;;9.25;8.35;;;;;;;8.83;62.82;101021.69;4976573;28;20046;-84
2022/04/05 02:48:46;;;;;;;8.93;8.20;;;;;;;7.44;63.31;100804.38;4975299;28;20085;-84
2022/04/05 02:51:16;;;;;;;12.00;8.60;;;;;;;9.24;62.17;101041.53;4972338;28;20055;-85
2022/04/05 02:53:43;;;;;;;10.50;8.60;;;;;;;9.02;62.17;100979.59;4967503;28;20047;-84
2022/04/05 02:56:10;;;;;;;10.93;8.65;;;;;;;9.06;62.76;101038.50;4969262;28;20584;-84
2022/04/05 02:58:37;;;;;;;9.68;8.68;;;;;;;8.68;63.59;100992.75;4969154;28;20046;-85
2022/04/05 03:01:04;;;;;;;10.98;8.18;;;;;;;8.88;63.83;101033.59;4972197;28;20055;-84
2022/04/05 03:03:32;;;;;;;9.15;8.25;;;;;;;8.44;63.75;100960.19;4968212;28;20055;-84
2022/04/05 03:06:00;;;;;;;9.32;8.40;;;;;;;8.73;63.88;101006.47;4968786;28;20054;-84
2022/04/05 03:08:27;;;;;;;9.23;8.40;;;;;;;8.81;63.50;101026.25;4968742;28;20077;-84
2022/04/05 03:10:54;;;;;;;8.40;7.60;;;;;;;8.37;63.30;100956.25;4967695;28;20376;-84
2022/04/05 03:13:21;;;;;;;8.90;8.10;;;;;;;8.85;63.42;101025.06;4967608;28;20075;-83
2022/04/05 03:15:48;;;;;;;8.23;7.45;;;;;;;8.69;63.12;101010.34;4971311;28;20465;-84
2022/04/05 03:18:15;;;;;;;9.25;8.25;;;;;;;8.15;63.03;100910.22;4986799;28;20050;-84
2022/04/05 03:20:41;;;;;;;9.05;8.15;;;;;;;8.90;62.58;101014.97;4987130;28;20058;-84
2022/04/05 03:23:08;;;;;;;8.80;8.10;;;;;;;8.98;62.73;101025.81;4986659;28;20723;-84
2022/04/05 03:25:35;;;;;;;9.18;8.25;;;;;;;8.77;62.98;100992.06;4987954;28;20046;-84
2022/04/05 03:28:03;;;;;;;9.77;8.82;;;;;;;8.91;63.02;101020.16;4986776;28;20453;-83
2022/04/05 03:30:31;;;;;;;9.60;8.70;;;;;;;8.58;62.23;100981.16;4986914;28;20050;-83
2022/04/05 03:32:58;;;;;;;8.20;7.50;;;;;;;8.83;62.21;101016.38;4988069;28;20511;-83
2022/04/05 03:35:25;;;;;;;8.57;7.78;;;;;;;8.66;62.13;100977.94;4986889;28;20092;-84
2022/04/05 03:37:52;;;;;;;8.70;7.90;;;;;;;8.69;61.75;100990.94;4986740;28;20401;-84
2022/04/05 03:40:18;;;;;;;8.40;7.60;;;;;;;8.89;61.54;101015.94;4987898;28;20100;-84
2022/04/05 03:42:45;;;;;;;9.32;8.32;;;;;;;8.86;61.46;101014.38;4986594;28;20062;-84
2022/04/05 03:45:12;;;;;;;8.93;7.65;;;;;;;8.09;61.57;100898.31;4986459;28;20455;-84
2022/04/05 03:47:40;;;;;;;9.35;8.27;;;;;;;7.74;62.05;100847.19;4986935;28;20064;-84
2022/04/05 03:50:07;;;;;;;8.90;8.00;;;;;;;8.23;62.08;100926.41;4988215;28;20417;-83
2022/04/05 03:52:37;;;;;;;8.20;7.47;;;;;;;8.76;62.10;101024.81;4987856;28;20464;-84
2022/04/05 03:55:04;;;;;;;8.18;7.47;;;;;;;8.77;62.43;101029.13;4986981;28;20086;-84
2022/04/05 03:57:36;;;;;;;8.70;7.80;;;;;;;7.14;62.14;100749.38;4987124;28;20051;-85
2022/04/05 04:00:03;;;;;;;8.13;7.43;;;;;;;8.71;62.61;101008.41;4988021;28;20077;-84
2022/04/05 04:02:34;;;;;;;7.95;7.25;;;;;;;7.69;62.87;100836.94;4986421;28;20109;-85
2022/04/05 04:05:01;;;;;;;8.70;8.00;;;;;;;7.28;62.79;100769.47;4988809;28;20061;-84
2022/04/05 04:07:28;;;;;;;10.00;8.00;;;;;;;8.63;63.49;101002.84;5006217;28;20054;-84
2022/04/05 04:09:54;;;;;;;11.75;8.18;;;;;;;7.63;62.96;100822.41;4990704;28;20430;-83
2022/04/05 04:12:21;;;;;;;9.05;8.15;;;;;;;8.76;62.93;101008.91;4990232;28;20061;-84
2022/04/05 04:14:50;;;;;;;8.75;8.05;;;;;;;8.40;62.85;100958.69;4990521;28;20054;-84
2022/04/05 04:17:23;;;;;;;10.10;8.55;;;;;;;7.07;62.42;100712.00;4974783;28;20099;-84
2022/04/05 04:19:50;;;;;;;9.68;8.57;;;;;;;7.36;62.46;100776.88;4971979;28;20054;-84
2022/04/05 04:22:19;;;;;;;9.75;8.50;;;;;;;8.82;61.57;101006.75;4972040;28;20058;-84
2022/04/05 04:24:46;;;;;;;11.60;10.38;;;;;;;7.86;62.19;100862.13;4971657;28;20053;-83
2022/04/05 04:27:12;;;;;;;10.90;8.95;;;;;;;8.73;62.17;101005.63;4970137;28;20058;-84
2022/04/05 04:29:39;;;;;;;9.35;7.95;;;;;;;8.75;62.38;101009.03;4987142;28;20055;-84
2022/04/05 04:32:07;;;;;;;8.10;7.18;;;;;;;8.22;62.11;100935.28;4971905;28;20101;-84
2022/04/05 04:34:43;;;;;;;8.80;7.95;;;;;;;7.98;61.91;100882.38;4971046;28;20086;-84
2022/04/05 04:37:10;;;;;;;9.93;7.55;;;;;;;8.61;62.42;100996.81;4971773;28;20073;-84
2022/04/05 04:39:39;;;;;;;8.70;7.80;;;;;;;8.68;61.93;101013.91;4971553;28;20070;-84
2022/04/05 04:42:06;;;;;;;8.68;7.80;;;;;;;7.98;61.32;100869.16;4970134;28;20049;-84
2022/04/05 04:44:33;;;;;;;7.78;7.07;;;;;;;8.85;61.26;101015.31;4970215;28;20105;-84
2022/04/05 04:47:05;;;;;;;9.55;7.57;;;;;;;7.65;60.94;100812.56;4970423;28;20081;-83
2022/04/05 04:49:36;;;;;;;7.53;6.82;;;;;;;8.68;60.53;100984.81;4972888;28;20146;-85
2022/04/05 04:52:06;;;;;;;9.45;7.75;;;;;;;7.57;60.54;100806.13;4975220;28;20074;-85
2022/04/05 04:54:33;;;;;;;8.57;7.68;;;;;;;8.19;60.10;100895.84;4976568;28;20493;-84
2022/04/05 04:57:02;;;;;;;8.68;7.10;;;;;;;8.82;60.42;101012.06;4974454;28;20457;-84
2022/04/05 04:59:34;;;;;;;8.23;7.32;;;;;;;8.06;60.71;100895.06;4973448;28;20039;-85
2022/04/05 05:02:01;;;;;;;12.48;6.55;;;;;;;8.48;60.33;100951.91;4987662;28;20066;-84
2022/04/05 05:04:28;;;;;;;7.45;6.75;;;;;;;8.78;60.59;100993.75;4987105;28;20042;-84
2022/04/05 05:06:55;;;;;;;14.10;8.35;;;;;;;8.30;60.13;100914.41;4987148;28;20066;-85
2022/04/05 05:09:22;;;;;;;7.82;7.05;;;;;;;8.81;60.14;100991.81;4987081;28;20054;-83
2022/04/05 05:11:51;;;;;;;7.97;7.28;;;;;;;8.43;59.92;100929.41;4976347;28;20313;-83
2022/04/05 05:14:23;;;;;;;9.10;7.20;;;;;;;9.03;59.97;101025.47;4968431;28;20050;-83
2022/04/05 05:16:50;;;;;;;7.80;7.10;;;;;;;8.05;59.76;100886.28;4967398;28;20050;-83
2022/04/05 05:19:17;;;;;;;7.57;6.82;;;;;;;8.43;59.81;100924.09;4970348;28;20054;-86
2022/04/05 05:21:44;;;;;;;7.95;6.78;;;;;;;8.04;58.83;100822.94;4976623;28;20057;-85
2022/04/05 05:24:10;;;;;;;8.25;7.32;;;;;;;9.20;58.49;101028.53;5008537;28;20050;-85
2022/04/05 05:26:40;;;;;;;6.93;6.20;;;;;;;8.07;58.50;100843.84;4986512;28;20121;-85
2022/04/05 05:29:17;;;;;;;7.82;6.70;;;;;;;8.33;58.53;100892.16;4967360;28;20050;-86
2022/04/05 05:31:49;;;;;;;10.00;7.22;;;;;;;7.85;59.25;100815.53;4970680;28;20058;-85
2022/04/05 05:34:23;;;;;;;9.27;7.20;;;;;;;8.03;59.03;100852.97;4971607;28;20063;-86
2022/04/05 05:36:50;;;;;;;7.38;6.38;;;;;;;7.53;59.00;100759.78;4967013;28;20055;-85
2022/04/05 05:39:21;;;;;;;9.60;6.82;;;;;;;8.08;58.95;100864.03;4968065;28;20053;-85
2022/04/05 05:41:48;;;;;;;7.40;6.70;;;;;;;7.70;58.79;100778.72;4968313;28;20047;-85
2022/04/05 05:44:17;;;;;;;8.07;7.05;;;;;;;8.57;58.83;100921.28;4966826;28;20109;-85
2022/04/05 05:46:45;;;;;;;7.90;7.20;;;;;;;9.29;58.69;101036.75;4967132;28;20456;-86
2022/04/05 05:49:12;;;;;;;7.78;6.97;;;;;;;9.14;58.80;101005.16;4968372;28;20126;-85
2022/04/05 05:51:38;;;;;;;7.95;6.95;;;;;;;9.36;58.62;101030.84;4969092;28;20055;-85
2022/04/05 05:54:05;;;;;;;7.82;7.13;;;;;;;8.01;58.49;100804.63;4968071;28;20475;-86
2022/04/05 05:56:32;;;;;;;13.05;6.53;;;;;;;8.18;58.57;100833.34;4966141;28;20050;-86
2022/04/05 05:59:03;;;;;;;7.30;6.55;;;;;;;8.78;58.47;100918.78;4967252;28;20043;-85
2022/04/05 06:01:30;;;;;;;6.65;6.05;;;;;;;9.51;58.83;101028.81;4967005;28;20520;-84
2022/04/05 06:03:57;;;;;;;7.95;6.82;;;;;;;9.50;58.15;101003.28;4966004;28;20224;-85
2022/04/05 06:06:24;;;;;;;9.35;6.70;;;;;;;9.48;57.78;100999.91;4965848;28;20078;-85
2022/04/05 06:08:51;;;;;;;11.48;6.70;;;;;;;9.90;57.70;101044.38;4966158;28;20080;-86
2022/04/05 06:11:17;;;;;;;10.57;6.75;;;;;;;9.67;57.49;100995.81;4967186;28;20144;-85
2022/04/05 06:13:44;;;;;;;12.98;6.95;;;;;;;9.86;57.26;101027.03;4965772;28;20473;-85
2022/04/05 06:16:11;;;;;;;9.20;6.78;;;;;;;9.84;57.90;101019.19;4981743;28;20152;-83
2022/04/05 06:18:38;;;;;;;7.47;6.72;;;;;;;10.12;56.57;101044.38;4984494;28;20077;-87
2022/04/05 06:21:05;;;;;;;7.65;6.85;;;;;;;9.95;56.63;100974.09;4986761;28;20145;-84
2022/04/05 06:23:31;;;;;;;8.05;7.22;;;;;;;10.41;56.10;101039.41;4982715;28;20131;-87
2022/04/05 06:25:59;;;;;;;12.25;7.20;;;;;;;10.42;56.18;101043.72;4982327;28;20134;-84
2022/04/05 06:28:26;;;;;;;7.15;6.45;;;;;;;8.91;57.00;100791.63;4968577;28;20145;-84
2022/04/05 06:30:53;;;;;;;8.00;7.30;;;;;;;9.72;55.59;100908.81;4987608;28;20050;-84
2022/04/05 06:33:22;;;;;;;9.23;7.13;;;;;;;10.02;55.60;100947.91;4986584;28;20452;-85
2022/04/05 06:35:53;;;;;;;8.95;7.18;;;;;;;10.49;56.05;101022.84;4986993;28;20087;-86
2022/04/05 06:38:20;;;;;;;7.75;6.90;;;;;;;8.73;55.16;100725.06;4987858;28;20054;-84
2022/04/05 06:40:47;;;;;;;8.45;6.80;;;;;;;10.22;54.85;100954.28;4989206;28;20054;-84
2022/04/05 06:43:16;;;;;;;9.48;6.95;;;;;;;9.83;55.38;100872.50;4987192;28;20050;-85
2022/04/05 06:45:43;;;;;;;9.27;6.50;;;;;;;10.56;54.71;100967.41;4987717;28;20561;-86
2022/04/05 06:48:11;;;;;;;11.82;6.60;;;;;;;11.00;54.68;101021.31;4986384;28;20357;-85
2022/04/05 06:50:40;;;;;;;7.88;7.10;;;;;;;10.46;54.38;100946.09;4988677;28;20049;-86
2022/04/05 06:53:09;;;;;;;7.38;5.80;;;;;;;11.20;53.79;101054.16;4989163;28;20069;-84
2022/04/05 06:55:37;;;;;;;6.90;6.18;;;;;;;10.21;53.18;100873.81;4991391;28;20065;-74
2022/04/05 06:58:04;;;;;;;8.95;6.07;;;;;;;11.09;52.94;101018.72;4993472;28;20064;-85
2022/04/05 07:00:33;;;;;;;7.18;6.38;;;;;;;11.00;53.60;100986.78;4996536;28;20054;-87
2022/04/05 07:03:01;;;;;;;7.03;6.32;;;;;;;11.27;53.32;101042.88;4997539;28;20078;-85
2022/04/05 07:05:28;;;;;;;9.00;5.85;;;;;;;11.40;53.28;101041.84;4990241;28;20403;-86
2022/04/05 07:07:55;;;;;;;6.47;5.93;;;;;;;11.15;53.76;101001.41;4985972;28;20452;-86
2022/04/05 07:10:23;;;;;;;7.57;6.25;;;;;;;10.44;53.30;100856.00;4986632;28;20109;-85
2022/04/05 07:12:51;;;;;;;7.40;6.43;;;;;;;11.49;51.86;101020.63;4986772;28;20050;-85
2022/04/05 07:15:18;;;;;;;7.05;6.05;;;;;;;11.64;51.85;101018.44;4987434;28;20054;-84
2022/04/05 07:17:45;;;;;;;6.78;6.03;;;;;;;11.45;51.88;100991.78;4986682;28;20053;-85
2022/04/05 07:20:29;;;;;;;6.63;5.97;;;;;;;10.78;52.27;100863.75;4987149;28;20408;-86
2022/04/05 07:22:55;;;;;;;7.32;6.40;;;;;;;11.86;51.95;101036.03;4988674;28;20046;-84
2022/04/05 07:25:23;;;;;;;6.88;5.97;;;;;;;10.12;51.03;100730.47;4974678;28;20047;-85
2022/04/05 07:27:51;;;;;;;7.93;6.28;;;;;;;12.17;51.10;101026.22;4968081;28;20058;-85
2022/04/05 07:30:19;;;;;;;7.57;5.82;;;;;;;11.74;51.00;100955.50;4968046;28;20051;-84
2022/04/05 07:32:47;;;;;;;7.15;6.35;;;;;;;12.21;50.66;101023.28;4968772;28;20058;-85
2022/04/05 07:35:15;;;;;;;6.03;5.43;;;;;;;11.71;51.51;100944.28;4967791;28;20102;-85
2022/04/05 07:37:42;;;;;;;6.28;5.68;;;;;;;12.25;49.99;101027.38;4967821;28;20069;-85
2022/04/05 07:40:10;;;;;;;6.75;6.10;;;;;;;11.85;49.96;100969.69;4972494;28;20456;-86
2022/04/05 07:42:39;;;;;;;6.25;5.15;;;;;;;12.37;49.91;101024.44;4973907;28;20382;-84
2022/04/05 07:45:08;;;;;;;7.40;6.32;;;;;;;12.08;49.45;100975.63;4973131;28;20058;-84
2022/04/05 07:47:35;;;;;;;7.53;6.53;;;;;;;12.36;49.24;101036.09;4974197;28;20460;-84
2022/04/05 07:50:04;;;;;;;7.38;6.22;;;;;;;12.47;48.60;101027.13;4974508;28;20265;-84
2022/04/05 07:52:31;;;;;;;7.30;6.65;;;;;;;12.38;49.27;101030.63;4973078;28;20296;-85
2022/04/05 07:54:57;;;;;;;6.38;5.78;;;;;;;11.08;49.66;100840.81;4989619;28;20106;-85
2022/04/05 07:57:24;;;;;;;9.88;6.70;;;;;;;12.33;49.35;101024.84;4973818;28;20106;-83
2022/04/05 07:59:51;;;;;;;6.72;6.13;;;;;;;12.21;49.11;101004.66;4993255;28;20085;-86
2022/04/05 08:02:18;;;;;;;7.07;5.97;;;;;;;12.36;49.74;101019.28;4976409;28;20124;-84
2022/04/05 08:04:56;;;;;;;7.32;6.30;;;;;;;12.30;48.99;101006.50;4973870;28;20054;-84
2022/04/05 08:07:22;;;;;;;8.57;6.53;;;;;;;12.24;49.20;101015.06;4991555;28;20598;-85
2022/04/05 08:09:49;;;;;;;6.18;5.57;;;;;;;12.27;49.32;101012.09;4992793;28;20050;-85
2022/04/05 08:12:17;;;;;;;5.80;5.30;;;;;;;11.98;50.09;100935.72;4992410;28;20056;-83
2022/04/05 08:14:44;;;;;;;6.97;6.28;;;;;;;11.84;48.11;100897.00;4992681;28;20051;-83
2022/04/05 08:17:11;;;;;;;7.25;6.60;;;;;;;12.07;48.05;100924.25;4993434;28;20424;-81
2022/04/05 08:19:37;;;;;;;6.70;5.97;;;;;;;12.58;48.40;101020.84;4992008;28;20137;-81
2022/04/05 08:22:05;;;;;;;7.15;6.45;;;;;;;12.37;48.46;100983.66;4992420;28;20289;-81
2022/04/05 08:24:32;;;;;;;6.97;6.38;;;;;;;12.53;47.88;101013.25;4989068;28;20700;-82
2022/04/05 08:27:00;;;;;;;7.63;5.97;;;;;;;12.53;48.90;101005.28;4992645;28;20137;-80
2022/04/05 08:29:27;;;;;;;8.60;5.50;;;;;;;12.84;52.22;101015.81;4992106;28;20046;-85
2022/04/05 08:31:54;;;;;;;7.80;6.07;;;;;;;12.45;48.82;100949.22;4992285;28;20056;-86
2022/04/05 08:34:22;;;;;;;5.70;5.20;;;;;;;12.84;47.78;101026.47;4993153;28;20050;-86
2022/04/05 08:36:48;;;;;;;6.45;5.75;;;;;;;12.64;47.96;100990.97;4992785;28;20515;-86
2022/04/05 08:39:15;;;;;;;9.73;5.60;;;;;;;12.70;47.79;101000.22;4993206;28;20086;-84
2022/04/05 08:41:43;;;;;;;7.78;5.57;;;;;;;12.71;47.81;101007.22;4993978;28;20523;-85
2022/04/05 08:44:12;;;;;;;5.78;5.28;;;;;;;12.79;47.81;101010.03;4995226;28;20050;-86
2022/04/05 08:46:40;;;;;;;5.93;5.30;;;;;;;12.54;47.61;100968.81;4994451;28;20045;-84
2022/04/05 08:49:07;;;;;;;6.60;5.97;;;;;;;12.98;47.82;101031.31;4994967;28;20267;-86
2022/04/05 08:51:36;;;;;;;7.05;6.13;;;;;;;13.04;46.92;101030.78;4991678;28;20177;-86
2022/04/05 08:54:03;;;;;;;7.60;5.53;;;;;;;12.39;46.73;100920.47;4991207;28;20182;-86
2022/04/05 08:56:30;;;;;;;7.30;6.15;;;;;;;13.10;46.03;101034.69;4991753;28;20461;-85
2022/04/05 08:59:00;;;;;;;6.10;5.53;;;;;;;13.11;46.96;101024.91;4992118;28;20054;-84
2022/04/05 09:01:29;;;;;;;6.85;5.82;;;;;;;13.13;46.61;101015.78;4994037;28;20054;-85
2022/04/05 09:03:57;;;;;;;7.15;6.00;;;;;;;13.20;45.61;101008.00;4995661;28;20093;-84
2022/04/05 09:06:28;;;;;;;7.88;6.65;;;;;;;13.28;45.68;101007.31;4995518;28;20105;-84
2022/04/05 09:09:11;;;;;;;6.90;6.07;;;;;;;13.30;45.76;101003.56;4993241;28;20081;-84
2022/04/05 09:11:44;;;;;;;7.50;6.47;;;;;;;13.59;45.64;101031.94;4993417;28;20134;-85
2022/04/05 09:14:29;;;;;;;7.38;6.68;;;;;;;13.21;45.77;100967.91;4997273;28;20052;-85
2022/04/05 09:17:12;;;;;;;8.55;7.18;;;;;;;13.55;45.16;101014.56;4993240;28;20125;-85
2022/04/05 09:19:45;;;;;;;7.68;6.85;;;;;;;13.64;45.65;101009.19;4990635;28;20470;-83
2022/04/05 09:22:12;;;;;;;6.32;5.82;;;;;;;13.71;45.56;101003.25;4990822;28;20077;-86
2022/04/05 09:24:45;;;;;;;6.50;5.90;;;;;;;13.16;44.21;100890.19;4990118;28;20046;-88
2022/04/05 09:27:12;;;;;;;7.97;6.00;;;;;;;13.24;43.97;100908.09;4989750;28;20429;-85
2022/04/05 09:29:47;;;;;;;7.55;6.47;;;;;;;13.48;44.52;100917.44;4990116;28;20050;-85
2022/04/05 09:32:40;;;;;;;8.75;7.00;;;;;;;13.63;43.70;100913.28;4989509;28;20050;-84
2022/04/05 09:35:07;;;;;;;11.68;6.82;;;;;;;12.79;43.46;100747.13;4990768;28;20054;-86
2022/04/05 09:37:38;;;;;;;6.53;5.18;;;;;;;13.48;43.14;100824.09;4989521;28;20050;-84
2022/04/05 09:40:24;;;;;;;6.65;5.93;;;;;;;14.55;43.33;100981.69;4991997;28;20054;-85
2022/04/05 09:43:07;;;;;;;6.65;5.95;;;;;;;15.07;42.02;100997.84;4988617;28;20112;-84
2022/04/05 09:45:41;;;;;;;5.95;5.45;;;;;;;15.21;41.43;101000.94;4978903;28;20116;-87
2022/04/05 09:48:09;;;;;;;10.52;6.65;;;;;;;14.06;42.38;100807.66;4971192;28;20062;-86
2022/04/05 09:51:05;;;;;;;7.47;6.78;;;;;;;15.50;41.41;100990.75;4968974;28;20054;-86
2022/04/05 09:53:39;;;;;;;6.85;6.07;;;;;;;15.63;40.33;100989.47;4969284;28;20105;-85
2022/04/05 09:56:10;;;;;;;6.07;5.22;;;;;;;14.83;40.80;100839.94;4969558;28;20492;-86
2022/04/05 09:58:47;;;;;;;5.78;5.20;;;;;;;14.71;38.88;100770.75;4970239;28;20109;-86
2022/04/05 10:01:17;;;;;;;5.05;4.65;;;;;;;15.54;38.05;100886.91;4969227;28;20051;-85
2022/04/05 10:04:00;;;;;;;4.30;3.90;;;;;;;16.31;37.05;100967.13;4927574;29;20158;-86
2022/04/05 10:06:30;;;;;;;4.80;4.40;;;;;;;15.90;37.46;100884.88;4929708;29;20446;-84
2022/04/05 10:08:58;;;;;;;9.30;4.72;;;;;;;15.75;37.58;100838.31;4929878;29;20143;-86
2022/04/05 10:11:46;;;;;;;5.70;4.40;;;;;;;15.29;36.47;100741.53;4931517;29;20180;-85
2022/04/05 10:14:20;;;;;;;5.18;4.20;;;;;;;16.31;36.30;100874.22;4931163;29;20219;-86
2022/04/05 10:16:49;;;;;;;7.30;4.10;;;;;;;16.38;36.05;100867.19;4933811;29;20067;-86
2022/04/05 10:19:17;;;;;;;4.85;3.78;;;;;;;16.24;36.31;100807.06;4944714;28;20051;-86
2022/04/05 10:21:45;;;;;;;4.63;3.67;;;;;;;16.87;35.39;100874.34;4928443;29;20090;-86
2022/04/05 10:24:12;;;;;;;5.45;4.78;;;;;;;16.88;35.19;100846.53;4929457;29;20074;-85
2022/04/05 10:26:44;;;;;;;6.53;4.22;;;;;;;17.03;35.70;100844.78;4929343;29;20541;-85
2022/04/05 10:29:18;;;;;;;5.63;5.13;;;;;;;17.82;35.22;100967.50;4929751;29;20166;-85
2022/04/05 10:32:01;;;;;;;6.28;4.65;;;;;;;16.96;34.41;100802.75;4929499;29;20170;-85
2022/04/05 10:34:34;;;;;;;5.40;4.85;;;;;;;17.44;34.18;100858.03;4930159;29;20059;-86
2022/04/05 10:37:18;;;;;;;4.72;4.32;;;;;;;17.95;34.56;100930.13;4935110;29;20360;-86
2022/04/05 10:40:05;;;;;;;5.40;4.90;;;;;;;18.02;32.67;100931.09;4927868;29;20264;-85
2022/04/05 10:42:42;;;;;;;7.07;5.82;;;;;;;18.23;33.65;100949.28;4928790;29;20055;-84
2022/04/05 10:45:13;;;;;;;5.55;5.05;;;;;;;18.34;33.82;100934.59;4928304;29;20285;-85
2022/04/05 10:48:08;;;;;;;10.18;5.22;;;;;;;18.21;34.07;100894.06;4928596;29;20479;-85
2022/04/05 10:51:02;;;;;;;5.43;4.88;;;;;;;18.68;33.81;100944.91;4929545;29;20047;-84
2022/04/05 10:54:17;;;;;;;5.30;4.80;;;;;;;18.75;32.91;100931.56;4928389;29;20059;-85
2022/04/05 10:56:26;;;;;;;6.78;5.32;;;;;;;18.99;33.19;100946.69;4929884;29;20083;-85
2022/04/05 10:58:53;;;;;;;5.47;4.97;;;;;;;19.06;33.84;100939.53;4928888;29;20086;-84
2022/04/05 11:01:25;;;;;;;6.88;5.07;;;;;;;19.06;34.15;100931.47;4926964;28;20292;-86
2022/04/05 11:04:17;;;;;;;6.68;6.00;;;;;;;19.19;32.80;100925.44;4967706;28;20046;-85
2022/04/05 11:06:59;;;;;;;6.57;5.35;;;;;;;19.30;32.90;100914.22;4966612;28;20066;-85
2022/04/05 11:09:26;;;;;;;6.57;5.47;;;;;;;19.45;33.54;100905.31;4966739;28;20061;-85
2022/04/05 11:11:55;;;;;;;7.47;6.75;;;;;;;19.73;31.77;100903.59;4977277;28;20349;-85
2022/04/05 11:14:45;;;;;;;5.60;5.05;;;;;;;18.37;32.04;100692.34;4976765;28;20050;-86
2022/04/05 11:17:14;;;;;;;6.18;5.57;;;;;;;19.49;31.56;100839.28;4979579;28;20113;-86
2022/04/05 11:19:46;;;;;;;8.90;5.00;;;;;;;19.23;32.23;100772.53;4981851;28;20748;-86
2022/04/05 11:22:25;;;;;;;5.65;4.30;;;;;;;20.23;31.59;100907.25;4985652;28;20058;-87
2022/04/05 11:25:08;;;;;;;5.32;4.78;;;;;;;20.45;30.81;100901.84;4986308;28;20117;-86
2022/04/05 11:27:48;;;;;;;5.70;4.63;;;;;;;20.68;30.76;100907.03;4986627;28;20096;-85
2022/04/05 11:30:44;;;;;;;6.80;4.35;;;;;;;20.57;30.19;100894.94;4986614;28;20134;-86
2022/04/05 11:33:16;;;;;;;8.95;5.45;;;;;;;20.63;30.27;100910.34;4989135;28;20105;-87
2022/04/05 11:35:57;;;;;;;8.25;5.07;;;;;;;19.45;30.70;100706.09;4990062;28;20061;-86
2022/04/05 11:38:25;;;;;;;6.68;5.43;;;;;;;20.66;30.31;100904.56;4990583;28;20136;-86
2022/04/05 11:41:00;;;;;;;6.38;5.78;;;;;;;20.39;30.44;100843.31;4987625;28;20316;-86
2022/04/05 11:43:30;;;;;;;7.68;4.38;;;;;;;19.84;30.16;100754.94;4986985;28;20046;-86